Oosterschelde — PGNP — position and weather

sailwx.info

Track history (hours):
 
Tides and Currents Weather Stations Pressure Air Temp Water Temp Dewpoint Dewpoint Depression Visibility Wind Speed Wind Dir Waves Ship Positions

Oosterschelde (Netherlands)

Ship's website: http://www.oosterschelde.nl/indexuk.htm

Last reported at 2019-Sep-21 04:29 UTC. Time now 2019-Sep-21 04:39 UTC.
Position N 51°55' E 004°29'.

Length 49 m; draft 2.9 m.

Type: Sailing vessel. MMSI: 246010985.

Date/timePositionNaut miles runAvg speedWind from/ knotsBaromVisibWave heightAir tempDewpointWater temp
2019-Sep-21 04:29N 51°55' E 004°29'0 0.0
2019-Sep-21 03:59N 51°55' E 004°29'0 0.1
2019-Sep-21 03:29N 51°55' E 004°29'0 0.0
2019-Sep-21 02:59N 51°55' E 004°29'0 0.0
2019-Sep-21 02:29N 51°55' E 004°29'0 0.0
2019-Sep-21 01:59N 51°55' E 004°29'0 0.0
2019-Sep-21 01:29N 51°55' E 004°29'0 0.0
2019-Sep-21 00:59N 51°55' E 004°29'0 0.0
2019-Sep-21 00:29N 51°55' E 004°29'0 0.0
2019-Sep-20 23:59N 51°55' E 004°29'0 0.0
2019-Sep-20 23:29N 51°55' E 004°29'0 0.0
2019-Sep-20 22:59N 51°55' E 004°29'0 0.0
2019-Sep-20 22:29N 51°55' E 004°29'0 0.0
2019-Sep-20 21:59N 51°55' E 004°29'0 0.0
2019-Sep-20 21:26N 51°55' E 004°29'0 0.0
2019-Sep-20 20:59N 51°55' E 004°29'0 0.0
2019-Sep-20 20:29N 51°55' E 004°29'0 0.0
2019-Sep-20 19:59N 51°55' E 004°29'0 0.0
2019-Sep-20 19:29N 51°55' E 004°29'0 0.0
2019-Sep-20 18:59N 51°55' E 004°29'0 0.0
2019-Sep-20 18:29N 51°55' E 004°29'0 0.0
2019-Sep-20 17:59N 51°55' E 004°29'0 0.0
2019-Sep-20 17:30N 51°55' E 004°29'0 0.9
2019-Sep-20 17:00N 51°54' E 004°29'2 4.2
2019-Sep-20 16:31N 51°54' E 004°26'3 6.7
2019-Sep-20 16:01N 51°54' E 004°20'3 6.0
2019-Sep-20 15:30N 51°54' E 004°16'3 6.0
2019-Sep-20 15:00N 51°56' E 004°12'3 5.5
2019-Sep-20 14:30N 51°58' E 004°08'3 5.2
2019-Sep-20 14:00N 51°59' E 004°04'2 4.2
2019-Sep-20 13:30N 52°00' E 004°02'2 3.0
2019-Sep-20 13:01N 52°02' E 004°02'1 2.1
2019-Sep-20 12:31N 52°03' E 004°03'2 4.4
2019-Sep-20 12:00N 52°05' E 004°05'2 3.6
2019-Sep-20 11:30N 52°06' E 004°07'1 1.0
2019-Sep-20 11:00N 52°05' E 004°07'1 1.6
2019-Sep-20 10:30N 52°05' E 004°07'1 2.7
2019-Sep-20 10:00N 52°03' E 004°06'0 0.9
2019-Sep-20 09:30N 52°03' E 004°07'2 4.5
2019-Sep-20 09:00N 52°05' E 004°09'2 4.1
2019-Sep-20 08:31N 52°07' E 004°11'4 4.4
2019-Sep-20 07:30N 52°11' E 004°15'2 3.9
2019-Sep-20 07:00N 52°12' E 004°17'2 3.1
2019-Sep-20 06:30N 52°14' E 004°18'2 4.3
2019-Sep-20 06:01N 52°16' E 004°17'2 4.3
2019-Sep-20 05:31N 52°17' E 004°14'2 3.7
2019-Sep-20 05:01N 52°19' E 004°15'4 4.3
2019-Sep-20 04:00N 52°23' E 004°17'3 5.2
2019-Sep-20 03:31N 52°25' E 004°18'3 5.5
2019-Sep-20 03:00N 52°28' E 004°20'3 5.6
2019-Sep-20 02:30N 52°31' E 004°22'3 5.8
2019-Sep-20 02:00N 52°34' E 004°21'3 6.1
2019-Sep-20 01:26N 52°37' E 004°21'3 6.3
2019-Sep-20 00:53N 52°40' E 004°22'3 6.3
2019-Sep-20 00:28N 52°43' E 004°23'24 5.0
2019-Sep-19 19:47N 53°05' E 004°38'96 4.9
2019-Sep-19 00:26N 53°48' E 007°01'2 5.0
2019-Sep-19 00:00N 53°48' E 007°05'2 4.9
2019-Sep-18 23:30N 53°49' E 007°09'2 4.9
2019-Sep-18 23:00N 53°49' E 007°13'2 4.6
2019-Sep-18 22:30N 53°50' E 007°17'15 5.1
2019-Sep-18 19:32N 53°54' E 007°41'0 5.8
2019-Sep-18 19:30N 53°54' E 007°42'3 6.5
2019-Sep-18 19:01N 53°55' E 007°47'4 7.3
2019-Sep-18 18:30N 53°57' E 007°52'3 6.4
2019-Sep-18 18:00N 53°59' E 007°57'3 5.7
2019-Sep-18 17:31N 53°60' E 008°02'3 5.7
2019-Sep-18 17:00N 54°00' E 008°06'2 3.6
2019-Sep-18 16:31N 54°00' E 008°09'2 4.8
2019-Sep-18 16:01N 54°01' E 008°13'2 4.8
2019-Sep-18 15:30N 54°02' E 008°17'2 3.5
2019-Sep-18 15:00N 54°02' E 008°20'1 2.7
2019-Sep-18 14:30N 54°02' E 008°22'2 3.2
2019-Sep-18 14:01N 54°02' E 008°25'2 2.2
2019-Sep-18 13:05N 54°03' E 008°28'0 1.0
2019-Sep-18 13:00N 54°03' E 008°29'1 1.1
2019-Sep-18 12:30N 54°02' E 008°29'0 0.9
2019-Sep-18 12:00N 54°02' E 008°30'1 1.0
2019-Sep-18 11:30N 54°02' E 008°30'0 0.8
2019-Sep-18 11:00N 54°01' E 008°31'1 1.6
2019-Sep-18 10:30N 54°01' E 008°32'11 0.5
2019-Sep-17 11:39N 53°52' E 008°43'0 0.0
2019-Sep-17 11:31N 53°52' E 008°43'0 0.0
2019-Sep-17 11:00N 53°52' E 008°43'0 0.0
2019-Sep-17 10:30N 53°52' E 008°43'0 0.0
2019-Sep-17 10:00N 53°52' E 008°43'0 0.0
2019-Sep-17 09:30N 53°52' E 008°43'0 0.0
2019-Sep-17 09:01N 53°52' E 008°43'0 0.0
2019-Sep-17 08:31N 53°52' E 008°43'0 0.0
2019-Sep-17 08:00N 53°52' E 008°43'0 0.0
2019-Sep-17 07:30N 53°52' E 008°43'0 0.0
2019-Sep-17 07:00N 53°52' E 008°43'0 0.0
2019-Sep-17 06:31N 53°52' E 008°43'0 0.0
2019-Sep-17 06:00N 53°52' E 008°43'0 0.0
2019-Sep-17 05:30N 53°52' E 008°43'0 0.0
2019-Sep-17 05:01N 53°52' E 008°43'0 0.0
2019-Sep-17 04:30N 53°52' E 008°43'0 0.0
2019-Sep-17 04:00N 53°52' E 008°43'0 0.0
2019-Sep-17 03:30N 53°52' E 008°43'0 0.0
2019-Sep-17 03:01N 53°52' E 008°43'0 0.0
2019-Sep-17 02:30N 53°52' E 008°43'0 0.0
2019-Sep-17 02:00N 53°52' E 008°43'0 0.3
2019-Sep-17 01:30N 53°52' E 008°43'0 1.0
2019-Sep-17 01:00N 53°52' E 008°43'1 2.2
2019-Sep-17 00:31N 53°52' E 008°45'2 3.5
2019-Sep-17 00:00N 53°51' E 008°47'2 3.4
2019-Sep-16 23:30N 53°50' E 008°50'2 3.4
2019-Sep-16 23:00N 53°51' E 008°53'3 5.2
2019-Sep-16 22:30N 53°51' E 008°57'3 6.4
2019-Sep-16 22:00N 53°52' E 009°02'4 7.7
2019-Sep-16 21:30N 53°53' E 009°09'4 8.1
2019-Sep-16 21:00N 53°53' E 009°15'4 8.2
2019-Sep-16 20:30N 53°50' E 009°21'4 8.5
2019-Sep-16 20:00N 53°46' E 009°24'4 8.1
2019-Sep-16 19:30N 53°43' E 009°28'4 8.5
2019-Sep-16 19:00N 53°39' E 009°31'4 7.9
2019-Sep-16 18:30N 53°36' E 009°35'4 7.2
2019-Sep-16 18:00N 53°34' E 009°40'3 6.7
2019-Sep-16 17:30N 53°34' E 009°46'3 5.8
2019-Sep-16 17:01N 53°33' E 009°51'3 5.1
2019-Sep-16 16:30N 53°33' E 009°55'1 2.8
2019-Sep-16 16:00N 53°33' E 009°57'0 0.0
2019-Sep-16 15:31N 53°33' E 009°57'0 0.0
2019-Sep-16 15:01N 53°33' E 009°57'0 0.3
2019-Sep-16 14:31N 53°33' E 009°57'1 1.6
2019-Sep-16 13:58N 53°33' E 009°56'0 0.0
2019-Sep-16 13:28N 53°33' E 009°56'0 0.0
2019-Sep-16 12:58N 53°33' E 009°56'0 0.0
2019-Sep-16 12:28N 53°33' E 009°56'0 0.0
2019-Sep-16 11:58N 53°33' E 009°56'0 0.0
2019-Sep-16 11:28N 53°33' E 009°56'0 0.0
2019-Sep-16 10:58N 53°33' E 009°56'0 0.0
2019-Sep-16 10:28N 53°33' E 009°56'0 0.0
2019-Sep-16 09:58N 53°33' E 009°56'0 0.0
2019-Sep-16 09:25N 53°33' E 009°56'0 0.0
2019-Sep-16 08:58N 53°33' E 009°56'0 0.0
2019-Sep-16 08:28N 53°33' E 009°56'0 0.0
2019-Sep-16 07:58N 53°33' E 009°56'0 0.0
2019-Sep-16 07:28N 53°33' E 009°56'0 0.0
2019-Sep-16 06:58N 53°33' E 009°56'0 0.0
2019-Sep-16 06:25N 53°33' E 009°56'0 0.0
2019-Sep-16 05:58N 53°33' E 009°56'0 0.0
2019-Sep-16 05:28N 53°33' E 009°56'0 0.0
2019-Sep-16 04:58N 53°33' E 009°56'0 0.0
2019-Sep-16 04:28N 53°33' E 009°56'0 0.0
2019-Sep-16 03:58N 53°33' E 009°56'0 0.0
2019-Sep-16 03:28N 53°33' E 009°56'0 0.0
2019-Sep-16 02:58N 53°33' E 009°56'0 0.0
2019-Sep-16 02:28N 53°33' E 009°56'0 0.0
2019-Sep-16 01:58N 53°33' E 009°56'0 0.0
2019-Sep-16 01:28N 53°33' E 009°56'0 0.0
2019-Sep-16 00:58N 53°33' E 009°56'0 0.0
2019-Sep-16 00:28N 53°33' E 009°56'0 0.0
2019-Sep-15 23:58N 53°33' E 009°56'0 0.0
2019-Sep-15 23:28N 53°33' E 009°56'0 0.0
2019-Sep-15 22:58N 53°33' E 009°56'0 0.0
2019-Sep-15 22:28N 53°33' E 009°56'0 0.0
2019-Sep-15 21:58N 53°33' E 009°56'0 0.0
2019-Sep-15 21:28N 53°33' E 009°56'0 0.0
2019-Sep-15 20:58N 53°33' E 009°56'0 0.0
2019-Sep-15 20:28N 53°33' E 009°56'0 0.0
2019-Sep-15 19:55N 53°33' E 009°56'0 0.0
2019-Sep-15 19:28N 53°33' E 009°56'0 0.0
2019-Sep-15 18:58N 53°33' E 009°56'0 0.1
2019-Sep-15 18:28N 53°33' E 009°56'0 0.1
2019-Sep-15 17:58N 53°33' E 009°56'0 0.0
2019-Sep-15 17:28N 53°33' E 009°56'0 0.0
2019-Sep-15 16:52N 53°33' E 009°56'0 0.0
2019-Sep-15 16:28N 53°33' E 009°56'0 0.0
2019-Sep-15 15:58N 53°33' E 009°56'0 0.0
2019-Sep-15 15:28N 53°33' E 009°56'0 0.0
2019-Sep-15 14:58N 53°33' E 009°56'0 0.0
2019-Sep-15 14:28N 53°33' E 009°56'0 0.0
2019-Sep-15 13:58N 53°33' E 009°56'0 0.0
2019-Sep-15 13:30N 53°33' E 009°56'0 0.0
2019-Sep-15 13:00N 53°33' E 009°56'0 0.0
2019-Sep-15 12:30N 53°33' E 009°56'1 1.9
2019-Sep-15 12:00N 53°33' E 009°57'1 1.8
2019-Sep-15 11:30N 53°33' E 009°59'2 4.4
2019-Sep-15 11:00N 53°32' E 009°55'2 3.9
2019-Sep-15 10:30N 53°33' E 009°52'2 4.4
2019-Sep-15 10:00N 53°33' E 009°48'2 4.9
2019-Sep-15 09:30N 53°33' E 009°52'3 5.1
2019-Sep-15 09:00N 53°33' E 009°56'1 1.9
2019-Sep-15 08:30N 53°32' E 009°58'1 1.6
2019-Sep-15 08:00N 53°33' E 009°57'0 0.0
2019-Sep-15 07:30N 53°33' E 009°57'1 1.7
2019-Sep-15 06:58N 53°33' E 009°56'0 0.0
2019-Sep-15 06:28N 53°33' E 009°56'0 0.0
2019-Sep-15 05:55N 53°33' E 009°56'0 0.0
2019-Sep-15 05:28N 53°33' E 009°56'0 0.0
2019-Sep-15 04:58N 53°33' E 009°56'0 0.0
2019-Sep-15 04:28N 53°33' E 009°56'0 0.0
2019-Sep-15 03:58N 53°33' E 009°56'0 0.0
2019-Sep-15 03:28N 53°33' E 009°56'0 0.0
2019-Sep-15 02:58N 53°33' E 009°56'0 0.0
2019-Sep-15 02:28N 53°33' E 009°56'0 0.0
2019-Sep-15 01:58N 53°33' E 009°56'0 0.0
2019-Sep-15 01:28N 53°33' E 009°56'0 0.0
2019-Sep-15 00:58N 53°33' E 009°56'0 0.0
2019-Sep-15 00:28N 53°33' E 009°56'0 0.0
2019-Sep-14 23:58N 53°33' E 009°56'0 0.0
2019-Sep-14 23:28N 53°33' E 009°56'0 0.0
2019-Sep-14 23:00N 53°33' E 009°56'1 1.7
2019-Sep-14 22:30N 53°33' E 009°57'0 0.1
2019-Sep-14 22:01N 53°33' E 009°57'0 0.4
2019-Sep-14 21:31N 53°33' E 009°57'0 0.5
2019-Sep-14 21:00N 53°33' E 009°57'2 3.5
2019-Sep-14 20:30N 53°32' E 009°54'0 0.8
2019-Sep-14 20:00N 53°33' E 009°54'2 4.2
2019-Sep-14 19:30N 53°33' E 009°57'1 2.1
2019-Sep-14 19:00N 53°32' E 009°59'0 0.9
2019-Sep-14 18:30N 53°32' E 009°59'0 0.8
2019-Sep-14 18:00N 53°32' E 009°59'1 2.0
2019-Sep-14 17:30N 53°33' E 009°57'0 0.1
2019-Sep-14 17:00N 53°33' E 009°57'0 0.3
2019-Sep-14 16:30N 53°33' E 009°57'1 1.8
2019-Sep-14 16:01N 53°33' E 009°56'0 0.0
2019-Sep-14 15:30N 53°33' E 009°56'0 0.0
2019-Sep-14 15:00N 53°33' E 009°56'0 0.0
2019-Sep-14 14:30N 53°33' E 009°56'0 0.9
2019-Sep-14 14:00N 53°33' E 009°56'1 1.0
2019-Sep-14 13:30N 53°33' E 009°57'0 0.2
2019-Sep-14 13:00N 53°33' E 009°57'0 0.1
2019-Sep-14 12:30N 53°33' E 009°57'0 0.3
2019-Sep-14 12:00N 53°33' E 009°57'1 1.9
2019-Sep-14 11:30N 53°32' E 009°59'1 1.7
2019-Sep-14 11:00N 53°32' E 009°58'3 5.4
2019-Sep-14 10:30N 53°32' E 009°53'3 5.3
2019-Sep-14 10:00N 53°33' E 009°49'2 4.6
2019-Sep-14 09:30N 53°34' E 009°45'2 4.3
2019-Sep-14 09:00N 53°33' E 009°49'3 5.3
2019-Sep-14 08:30N 53°33' E 009°53'2 4.7
2019-Sep-14 08:00N 53°33' E 009°57'0 0.0
2019-Sep-14 07:30N 53°33' E 009°57'1 1.9
2019-Sep-14 07:00N 53°33' E 009°56'0 0.0
2019-Sep-14 06:29N 53°33' E 009°56'0 0.0
2019-Sep-14 05:59N 53°33' E 009°56'0 0.0
2019-Sep-14 05:29N 53°33' E 009°56'0 0.0
2019-Sep-14 04:59N 53°33' E 009°56'0 0.0
2019-Sep-14 04:30N 53°33' E 009°56'0 0.0
2019-Sep-14 03:59N 53°33' E 009°56'0 0.0
2019-Sep-14 03:29N 53°33' E 009°56'0 0.0
2019-Sep-14 02:59N 53°33' E 009°56'0 0.0
2019-Sep-14 02:29N 53°33' E 009°56'0 0.0
2019-Sep-14 01:59N 53°33' E 009°56'0 0.0
2019-Sep-14 01:29N 53°33' E 009°56'0 0.0
2019-Sep-14 00:59N 53°33' E 009°56'0 0.0
2019-Sep-14 00:29N 53°33' E 009°56'0 0.0
2019-Sep-14 00:00N 53°33' E 009°56'1 2.0
2019-Sep-13 23:31N 53°33' E 009°57'0 0.2
2019-Sep-13 23:00N 53°33' E 009°57'0 0.0
2019-Sep-13 22:30N 53°33' E 009°57'0 0.0
2019-Sep-13 22:00N 53°33' E 009°57'0 0.2
2019-Sep-13 21:30N 53°33' E 009°57'1 1.7
2019-Sep-13 21:00N 53°33' E 009°58'0 0.2
2019-Sep-13 20:30N 53°33' E 009°58'1 1.7
2019-Sep-13 20:00N 53°33' E 009°57'2 3.5
2019-Sep-13 19:30N 53°32' E 009°54'2 4.2
2019-Sep-13 19:00N 53°33' E 009°50'2 4.0
2019-Sep-13 18:30N 53°33' E 009°47'1 1.1
2019-Sep-13 18:00N 53°34' E 009°46'4 7.2
2019-Sep-13 17:30N 53°33' E 009°52'3 6.0
2019-Sep-13 17:00N 53°33' E 009°57'0 0.0
2019-Sep-13 16:30N 53°33' E 009°57'0 0.4
2019-Sep-13 16:00N 53°33' E 009°57'1 1.4
2019-Sep-13 15:28N 53°33' E 009°56'0 0.0
2019-Sep-13 14:58N 53°33' E 009°56'0 0.0
2019-Sep-13 14:28N 53°33' E 009°56'0 0.0
2019-Sep-13 13:58N 53°33' E 009°56'0 0.0
2019-Sep-13 13:28N 53°33' E 009°56'0 0.0
2019-Sep-13 12:58N 53°33' E 009°56'0 0.0
2019-Sep-13 12:28N 53°33' E 009°56'0 0.0
2019-Sep-13 11:58N 53°33' E 009°56'0 0.1
2019-Sep-13 11:28N 53°33' E 009°55'0 0.1
2019-Sep-13 10:58N 53°33' E 009°56'0 0.0
2019-Sep-13 10:28N 53°33' E 009°56'0 0.0
2019-Sep-13 09:58N 53°33' E 009°56'0 0.0
2019-Sep-13 09:28N 53°33' E 009°56'0 0.0
2019-Sep-13 08:58N 53°33' E 009°56'0 0.0
2019-Sep-13 08:28N 53°33' E 009°56'0 0.0
2019-Sep-13 07:55N 53°33' E 009°56'0 0.0
2019-Sep-13 07:28N 53°33' E 009°56'0 0.0
2019-Sep-13 06:58N 53°33' E 009°56'0 0.0
2019-Sep-13 06:28N 53°33' E 009°56'0 0.0
2019-Sep-13 05:58N 53°33' E 009°56'0 0.0
2019-Sep-13 05:28N 53°33' E 009°56'0 0.0
2019-Sep-13 04:58N 53°33' E 009°56'0 0.0
2019-Sep-13 04:29N 53°33' E 009°56'0 0.0
2019-Sep-13 03:58N 53°33' E 009°56'0 0.0
2019-Sep-13 03:28N 53°33' E 009°56'0 0.0
2019-Sep-13 02:58N 53°33' E 009°56'0 0.0
2019-Sep-13 01:58N 53°33' E 009°56'0 0.0
2019-Sep-13 01:28N 53°33' E 009°56'0 0.0
2019-Sep-13 00:58N 53°33' E 009°56'0 0.0
2019-Sep-13 00:28N 53°33' E 009°56'0 0.0
2019-Sep-12 23:58N 53°33' E 009°56'0 0.0
2019-Sep-12 23:28N 53°33' E 009°56'0 0.0
2019-Sep-12 22:58N 53°33' E 009°56'0 0.0
2019-Sep-12 22:28N 53°33' E 009°56'0 0.0
2019-Sep-12 21:58N 53°33' E 009°56'0 0.0
2019-Sep-12 21:28N 53°33' E 009°56'0 0.0
2019-Sep-12 20:58N 53°33' E 009°56'0 0.0
2019-Sep-12 20:28N 53°33' E 009°56'0 0.0
2019-Sep-12 19:58N 53°33' E 009°56'0 0.0
2019-Sep-12 19:28N 53°33' E 009°56'0 0.0
2019-Sep-12 18:58N 53°33' E 009°56'0 0.0
2019-Sep-12 18:28N 53°33' E 009°56'0 0.0
2019-Sep-12 17:58N 53°33' E 009°56'0 0.0
2019-Sep-12 17:28N 53°33' E 009°56'0 0.0
2019-Sep-12 16:58N 53°33' E 009°56'0 0.0
2019-Sep-12 16:28N 53°33' E 009°56'0 0.0
2019-Sep-12 15:58N 53°33' E 009°56'0 0.0
2019-Sep-12 15:25N 53°33' E 009°56'0 0.0
2019-Sep-12 14:58N 53°33' E 009°56'0 0.0
2019-Sep-12 14:28N 53°33' E 009°56'0 0.0
2019-Sep-12 13:58N 53°33' E 009°56'0 0.0
2019-Sep-12 13:28N 53°33' E 009°56'0 0.0
2019-Sep-12 12:58N 53°33' E 009°56'0 0.0
2019-Sep-12 12:28N 53°33' E 009°56'0 0.0
2019-Sep-12 11:55N 53°33' E 009°56'0 0.0
2019-Sep-12 11:28N 53°33' E 009°56'0 0.0
2019-Sep-12 10:58N 53°33' E 009°56'0 0.0
2019-Sep-12 10:28N 53°33' E 009°56'0 0.0
2019-Sep-12 09:58N 53°33' E 009°56'0 0.0
2019-Sep-12 09:28N 53°33' E 009°56'0 0.0
2019-Sep-12 08:58N 53°33' E 009°56'0 0.0
2019-Sep-12 08:28N 53°33' E 009°56'0 0.0
2019-Sep-12 07:58N 53°33' E 009°56'0 0.0
2019-Sep-12 07:28N 53°33' E 009°56'0 0.0
2019-Sep-12 06:58N 53°33' E 009°56'0 0.0
2019-Sep-12 06:28N 53°33' E 009°56'0 0.0
2019-Sep-12 05:58N 53°33' E 009°56'0 0.0
2019-Sep-12 05:28N 53°33' E 009°56'0 0.0
2019-Sep-12 04:58N 53°33' E 009°56'0 0.0
2019-Sep-12 04:28N 53°33' E 009°56'0 0.0
2019-Sep-12 03:58N 53°33' E 009°56'0 0.0
2019-Sep-12 03:28N 53°33' E 009°56'0 0.0
2019-Sep-12 02:58N 53°33' E 009°56'0 0.0
2019-Sep-12 02:28N 53°33' E 009°56'0 0.0
2019-Sep-12 01:58N 53°33' E 009°56'0 0.0
2019-Sep-12 01:28N 53°33' E 009°56'0 0.0
2019-Sep-12 00:58N 53°33' E 009°56'0 0.0
2019-Sep-12 00:28N 53°33' E 009°56'0 0.0
2019-Sep-11 23:58N 53°33' E 009°56'0 0.0
2019-Sep-11 23:28N 53°33' E 009°56'0 0.0
2019-Sep-11 22:58N 53°33' E 009°56'0 0.0
2019-Sep-11 22:25N 53°33' E 009°56'0 0.0
2019-Sep-11 21:58N 53°33' E 009°56'0 0.0
2019-Sep-11 21:28N 53°33' E 009°56'0 0.0
2019-Sep-11 20:55N 53°33' E 009°56'0 0.0
2019-Sep-11 20:28N 53°33' E 009°56'0 0.0
2019-Sep-11 19:58N 53°33' E 009°56'0 0.0
2019-Sep-11 19:25N 53°33' E 009°56'0 0.0
2019-Sep-11 18:58N 53°33' E 009°56'0 0.0
2019-Sep-11 18:28N 53°33' E 009°56'0 0.0
2019-Sep-11 17:58N 53°33' E 009°56'0 0.0
2019-Sep-11 17:28N 53°33' E 009°56'0 0.0
2019-Sep-11 16:58N 53°33' E 009°56'0 0.0
2019-Sep-11 16:28N 53°33' E 009°56'0 0.0
2019-Sep-11 15:58N 53°33' E 009°56'0 0.0
2019-Sep-11 15:28N 53°33' E 009°56'0 0.0
2019-Sep-11 15:01N 53°33' E 009°56'2 3.1
2019-Sep-11 14:31N 53°33' E 009°53'3 6.3
2019-Sep-11 14:00N 53°33' E 009°48'3 7.0
2019-Sep-11 13:30N 53°34' E 009°42'3 6.8
2019-Sep-11 13:00N 53°35' E 009°37'4 7.1
2019-Sep-11 12:30N 53°37' E 009°32'3 6.5
2019-Sep-11 12:01N 53°40' E 009°30'3 5.9
2019-Sep-11 11:30N 53°43' E 009°28'3 6.4
2019-Sep-11 11:00N 53°45' E 009°24'3 6.0
2019-Sep-11 10:30N 53°48' E 009°22'4 7.4
2019-Sep-11 10:00N 53°51' E 009°19'5 8.9
2019-Sep-11 09:27N 53°53' E 009°11'14 9.2
2019-Sep-11 07:56N 53°50' E 008°47'4 7.7
2019-Sep-11 07:26N 53°53' E 008°42'5 6.4
2019-Sep-11 06:36N 53°57' E 008°37'  
Track history (hours):
 
Tides and Currents Weather Stations Pressure Air Temp Water Temp Dewpoint Dewpoint Depression Visibility Wind Speed Wind Dir Waves Ship Positions

Oosterschelde (Netherlands)

Ship's website: http://www.oosterschelde.nl/indexuk.htm

Last reported at 2019-Sep-21 04:29 UTC. Time now 2019-Sep-21 04:39 UTC.
Position N 51°55' E 004°29'.

Length 49 m; draft 2.9 m.

Type: Sailing vessel. MMSI: 246010985.

Date/timePositionNaut miles runAvg speedWind from/ knotsBaromVisibWave heightAir tempDewpointWater temp
2019-Sep-21 04:29N 51°55' E 004°29'0 0.0
2019-Sep-21 03:59N 51°55' E 004°29'0 0.1
2019-Sep-21 03:29N 51°55' E 004°29'0 0.0
2019-Sep-21 02:59N 51°55' E 004°29'0 0.0
2019-Sep-21 02:29N 51°55' E 004°29'0 0.0
2019-Sep-21 01:59N 51°55' E 004°29'0 0.0
2019-Sep-21 01:29N 51°55' E 004°29'0 0.0
2019-Sep-21 00:59N 51°55' E 004°29'0 0.0
2019-Sep-21 00:29N 51°55' E 004°29'0 0.0
2019-Sep-20 23:59N 51°55' E 004°29'0 0.0
2019-Sep-20 23:29N 51°55' E 004°29'0 0.0
2019-Sep-20 22:59N 51°55' E 004°29'0 0.0
2019-Sep-20 22:29N 51°55' E 004°29'0 0.0
2019-Sep-20 21:59N 51°55' E 004°29'0 0.0
2019-Sep-20 21:26N 51°55' E 004°29'0 0.0
2019-Sep-20 20:59N 51°55' E 004°29'0 0.0
2019-Sep-20 20:29N 51°55' E 004°29'0 0.0
2019-Sep-20 19:59N 51°55' E 004°29'0 0.0
2019-Sep-20 19:29N 51°55' E 004°29'0 0.0
2019-Sep-20 18:59N 51°55' E 004°29'0 0.0
2019-Sep-20 18:29N 51°55' E 004°29'0 0.0
2019-Sep-20 17:59N 51°55' E 004°29'0 0.0
2019-Sep-20 17:30N 51°55' E 004°29'0 0.9
2019-Sep-20 17:00N 51°54' E 004°29'2 4.2
2019-Sep-20 16:31N 51°54' E 004°26'3 6.7
2019-Sep-20 16:01N 51°54' E 004°20'3 6.0
2019-Sep-20 15:30N 51°54' E 004°16'3 6.0
2019-Sep-20 15:00N 51°56' E 004°12'3 5.5
2019-Sep-20 14:30N 51°58' E 004°08'3 5.2
2019-Sep-20 14:00N 51°59' E 004°04'2 4.2
2019-Sep-20 13:30N 52°00' E 004°02'2 3.0
2019-Sep-20 13:01N 52°02' E 004°02'1 2.1
2019-Sep-20 12:31N 52°03' E 004°03'2 4.4
2019-Sep-20 12:00N 52°05' E 004°05'2 3.6
2019-Sep-20 11:30N 52°06' E 004°07'1 1.0
2019-Sep-20 11:00N 52°05' E 004°07'1 1.6
2019-Sep-20 10:30N 52°05' E 004°07'1 2.7
2019-Sep-20 10:00N 52°03' E 004°06'0 0.9
2019-Sep-20 09:30N 52°03' E 004°07'2 4.5
2019-Sep-20 09:00N 52°05' E 004°09'2 4.1
2019-Sep-20 08:31N 52°07' E 004°11'4 4.4
2019-Sep-20 07:30N 52°11' E 004°15'2 3.9
2019-Sep-20 07:00N 52°12' E 004°17'2 3.1
2019-Sep-20 06:30N 52°14' E 004°18'2 4.3
2019-Sep-20 06:01N 52°16' E 004°17'2 4.3
2019-Sep-20 05:31N 52°17' E 004°14'2 3.7
2019-Sep-20 05:01N 52°19' E 004°15'4 4.3
2019-Sep-20 04:00N 52°23' E 004°17'3 5.2
2019-Sep-20 03:31N 52°25' E 004°18'3 5.5
2019-Sep-20 03:00N 52°28' E 004°20'3 5.6
2019-Sep-20 02:30N 52°31' E 004°22'3 5.8
2019-Sep-20 02:00N 52°34' E 004°21'3 6.1
2019-Sep-20 01:26N 52°37' E 004°21'3 6.3
2019-Sep-20 00:53N 52°40' E 004°22'3 6.3
2019-Sep-20 00:28N 52°43' E 004°23'24 5.0
2019-Sep-19 19:47N 53°05' E 004°38'96 4.9
2019-Sep-19 00:26N 53°48' E 007°01'2 5.0
2019-Sep-19 00:00N 53°48' E 007°05'2 4.9
2019-Sep-18 23:30N 53°49' E 007°09'2 4.9
2019-Sep-18 23:00N 53°49' E 007°13'2 4.6
2019-Sep-18 22:30N 53°50' E 007°17'15 5.1
2019-Sep-18 19:32N 53°54' E 007°41'0 5.8
2019-Sep-18 19:30N 53°54' E 007°42'3 6.5
2019-Sep-18 19:01N 53°55' E 007°47'4 7.3
2019-Sep-18 18:30N 53°57' E 007°52'3 6.4
2019-Sep-18 18:00N 53°59' E 007°57'3 5.7
2019-Sep-18 17:31N 53°60' E 008°02'3 5.7
2019-Sep-18 17:00N 54°00' E 008°06'2 3.6
2019-Sep-18 16:31N 54°00' E 008°09'2 4.8
2019-Sep-18 16:01N 54°01' E 008°13'2 4.8
2019-Sep-18 15:30N 54°02' E 008°17'2 3.5
2019-Sep-18 15:00N 54°02' E 008°20'1 2.7
2019-Sep-18 14:30N 54°02' E 008°22'2 3.2
2019-Sep-18 14:01N 54°02' E 008°25'2 2.2
2019-Sep-18 13:05N 54°03' E 008°28'0 1.0
2019-Sep-18 13:00N 54°03' E 008°29'1 1.1
2019-Sep-18 12:30N 54°02' E 008°29'0 0.9
2019-Sep-18 12:00N 54°02' E 008°30'1 1.0
2019-Sep-18 11:30N 54°02' E 008°30'0 0.8
2019-Sep-18 11:00N 54°01' E 008°31'1 1.6
2019-Sep-18 10:30N 54°01' E 008°32'11 0.5
2019-Sep-17 11:39N 53°52' E 008°43'0 0.0
2019-Sep-17 11:31N 53°52' E 008°43'0 0.0
2019-Sep-17 11:00N 53°52' E 008°43'0 0.0
2019-Sep-17 10:30N 53°52' E 008°43'0 0.0
2019-Sep-17 10:00N 53°52' E 008°43'0 0.0
2019-Sep-17 09:30N 53°52' E 008°43'0 0.0
2019-Sep-17 09:01N 53°52' E 008°43'0 0.0
2019-Sep-17 08:31N 53°52' E 008°43'0 0.0
2019-Sep-17 08:00N 53°52' E 008°43'0 0.0
2019-Sep-17 07:30N 53°52' E 008°43'0 0.0
2019-Sep-17 07:00N 53°52' E 008°43'0 0.0
2019-Sep-17 06:31N 53°52' E 008°43'0 0.0
2019-Sep-17 06:00N 53°52' E 008°43'0 0.0
2019-Sep-17 05:30N 53°52' E 008°43'0 0.0
2019-Sep-17 05:01N 53°52' E 008°43'0 0.0
2019-Sep-17 04:30N 53°52' E 008°43'0 0.0
2019-Sep-17 04:00N 53°52' E 008°43'0 0.0
2019-Sep-17 03:30N 53°52' E 008°43'0 0.0
2019-Sep-17 03:01N 53°52' E 008°43'0 0.0
2019-Sep-17 02:30N 53°52' E 008°43'0 0.0
2019-Sep-17 02:00N 53°52' E 008°43'0 0.3
2019-Sep-17 01:30N 53°52' E 008°43'0 1.0
2019-Sep-17 01:00N 53°52' E 008°43'1 2.2
2019-Sep-17 00:31N 53°52' E 008°45'2 3.5
2019-Sep-17 00:00N 53°51' E 008°47'2 3.4
2019-Sep-16 23:30N 53°50' E 008°50'2 3.4
2019-Sep-16 23:00N 53°51' E 008°53'3 5.2
2019-Sep-16 22:30N 53°51' E 008°57'3 6.4
2019-Sep-16 22:00N 53°52' E 009°02'4 7.7
2019-Sep-16 21:30N 53°53' E 009°09'4 8.1
2019-Sep-16 21:00N 53°53' E 009°15'4 8.2
2019-Sep-16 20:30N 53°50' E 009°21'4 8.5
2019-Sep-16 20:00N 53°46' E 009°24'4 8.1
2019-Sep-16 19:30N 53°43' E 009°28'4 8.5
2019-Sep-16 19:00N 53°39' E 009°31'4 7.9
2019-Sep-16 18:30N 53°36' E 009°35'4 7.2
2019-Sep-16 18:00N 53°34' E 009°40'3 6.7
2019-Sep-16 17:30N 53°34' E 009°46'3 5.8
2019-Sep-16 17:01N 53°33' E 009°51'3 5.1
2019-Sep-16 16:30N 53°33' E 009°55'1 2.8
2019-Sep-16 16:00N 53°33' E 009°57'0 0.0
2019-Sep-16 15:31N 53°33' E 009°57'0 0.0
2019-Sep-16 15:01N 53°33' E 009°57'0 0.3
2019-Sep-16 14:31N 53°33' E 009°57'1 1.6
2019-Sep-16 13:58N 53°33' E 009°56'0 0.0
2019-Sep-16 13:28N 53°33' E 009°56'0 0.0
2019-Sep-16 12:58N 53°33' E 009°56'0 0.0
2019-Sep-16 12:28N 53°33' E 009°56'0 0.0
2019-Sep-16 11:58N 53°33' E 009°56'0 0.0
2019-Sep-16 11:28N 53°33' E 009°56'0 0.0
2019-Sep-16 10:58N 53°33' E 009°56'0 0.0
2019-Sep-16 10:28N 53°33' E 009°56'0 0.0
2019-Sep-16 09:58N 53°33' E 009°56'0 0.0
2019-Sep-16 09:25N 53°33' E 009°56'0 0.0
2019-Sep-16 08:58N 53°33' E 009°56'0 0.0
2019-Sep-16 08:28N 53°33' E 009°56'0 0.0
2019-Sep-16 07:58N 53°33' E 009°56'0 0.0
2019-Sep-16 07:28N 53°33' E 009°56'0 0.0
2019-Sep-16 06:58N 53°33' E 009°56'0 0.0
2019-Sep-16 06:25N 53°33' E 009°56'0 0.0
2019-Sep-16 05:58N 53°33' E 009°56'0 0.0
2019-Sep-16 05:28N 53°33' E 009°56'0 0.0
2019-Sep-16 04:58N 53°33' E 009°56'0 0.0
2019-Sep-16 04:28N 53°33' E 009°56'0 0.0
2019-Sep-16 03:58N 53°33' E 009°56'0 0.0
2019-Sep-16 03:28N 53°33' E 009°56'0 0.0
2019-Sep-16 02:58N 53°33' E 009°56'0 0.0
2019-Sep-16 02:28N 53°33' E 009°56'0 0.0
2019-Sep-16 01:58N 53°33' E 009°56'0 0.0
2019-Sep-16 01:28N 53°33' E 009°56'0 0.0
2019-Sep-16 00:58N 53°33' E 009°56'0 0.0
2019-Sep-16 00:28N 53°33' E 009°56'0 0.0
2019-Sep-15 23:58N 53°33' E 009°56'0 0.0
2019-Sep-15 23:28N 53°33' E 009°56'0 0.0
2019-Sep-15 22:58N 53°33' E 009°56'0 0.0
2019-Sep-15 22:28N 53°33' E 009°56'0 0.0
2019-Sep-15 21:58N 53°33' E 009°56'0 0.0
2019-Sep-15 21:28N 53°33' E 009°56'0 0.0
2019-Sep-15 20:58N 53°33' E 009°56'0 0.0
2019-Sep-15 20:28N 53°33' E 009°56'0 0.0
2019-Sep-15 19:55N 53°33' E 009°56'0 0.0
2019-Sep-15 19:28N 53°33' E 009°56'0 0.0
2019-Sep-15 18:58N 53°33' E 009°56'0 0.1
2019-Sep-15 18:28N 53°33' E 009°56'0 0.1
2019-Sep-15 17:58N 53°33' E 009°56'0 0.0
2019-Sep-15 17:28N 53°33' E 009°56'0 0.0
2019-Sep-15 16:52N 53°33' E 009°56'0 0.0
2019-Sep-15 16:28N 53°33' E 009°56'0 0.0
2019-Sep-15 15:58N 53°33' E 009°56'0 0.0
2019-Sep-15 15:28N 53°33' E 009°56'0 0.0
2019-Sep-15 14:58N 53°33' E 009°56'0 0.0
2019-Sep-15 14:28N 53°33' E 009°56'0 0.0
2019-Sep-15 13:58N 53°33' E 009°56'0 0.0
2019-Sep-15 13:30N 53°33' E 009°56'0 0.0
2019-Sep-15 13:00N 53°33' E 009°56'0 0.0
2019-Sep-15 12:30N 53°33' E 009°56'1 1.9
2019-Sep-15 12:00N 53°33' E 009°57'1 1.8
2019-Sep-15 11:30N 53°33' E 009°59'2 4.4
2019-Sep-15 11:00N 53°32' E 009°55'2 3.9
2019-Sep-15 10:30N 53°33' E 009°52'2 4.4
2019-Sep-15 10:00N 53°33' E 009°48'2 4.9
2019-Sep-15 09:30N 53°33' E 009°52'3 5.1
2019-Sep-15 09:00N 53°33' E 009°56'1 1.9
2019-Sep-15 08:30N 53°32' E 009°58'1 1.6
2019-Sep-15 08:00N 53°33' E 009°57'0 0.0
2019-Sep-15 07:30N 53°33' E 009°57'1 1.7
2019-Sep-15 06:58N 53°33' E 009°56'0 0.0
2019-Sep-15 06:28N 53°33' E 009°56'0 0.0
2019-Sep-15 05:55N 53°33' E 009°56'0 0.0
2019-Sep-15 05:28N 53°33' E 009°56'0 0.0
2019-Sep-15 04:58N 53°33' E 009°56'0 0.0
2019-Sep-15 04:28N 53°33' E 009°56'0 0.0
2019-Sep-15 03:58N 53°33' E 009°56'0 0.0
2019-Sep-15 03:28N 53°33' E 009°56'0 0.0
2019-Sep-15 02:58N 53°33' E 009°56'0 0.0
2019-Sep-15 02:28N 53°33' E 009°56'0 0.0
2019-Sep-15 01:58N 53°33' E 009°56'0 0.0
2019-Sep-15 01:28N 53°33' E 009°56'0 0.0
2019-Sep-15 00:58N 53°33' E 009°56'0 0.0
2019-Sep-15 00:28N 53°33' E 009°56'0 0.0
2019-Sep-14 23:58N 53°33' E 009°56'0 0.0
2019-Sep-14 23:28N 53°33' E 009°56'0 0.0
2019-Sep-14 23:00N 53°33' E 009°56'1 1.7
2019-Sep-14 22:30N 53°33' E 009°57'0 0.1
2019-Sep-14 22:01N 53°33' E 009°57'0 0.4
2019-Sep-14 21:31N 53°33' E 009°57'0 0.5
2019-Sep-14 21:00N 53°33' E 009°57'2 3.5
2019-Sep-14 20:30N 53°32' E 009°54'0 0.8
2019-Sep-14 20:00N 53°33' E 009°54'2 4.2
2019-Sep-14 19:30N 53°33' E 009°57'1 2.1
2019-Sep-14 19:00N 53°32' E 009°59'0 0.9
2019-Sep-14 18:30N 53°32' E 009°59'0 0.8
2019-Sep-14 18:00N 53°32' E 009°59'1 2.0
2019-Sep-14 17:30N 53°33' E 009°57'0 0.1
2019-Sep-14 17:00N 53°33' E 009°57'0 0.3
2019-Sep-14 16:30N 53°33' E 009°57'1 1.8
2019-Sep-14 16:01N 53°33' E 009°56'0 0.0
2019-Sep-14 15:30N 53°33' E 009°56'0 0.0
2019-Sep-14 15:00N 53°33' E 009°56'0 0.0
2019-Sep-14 14:30N 53°33' E 009°56'0 0.9
2019-Sep-14 14:00N 53°33' E 009°56'1 1.0
2019-Sep-14 13:30N 53°33' E 009°57'0 0.2
2019-Sep-14 13:00N 53°33' E 009°57'0 0.1
2019-Sep-14 12:30N 53°33' E 009°57'0 0.3
2019-Sep-14 12:00N 53°33' E 009°57'1 1.9
2019-Sep-14 11:30N 53°32' E 009°59'1 1.7
2019-Sep-14 11:00N 53°32' E 009°58'3 5.4
2019-Sep-14 10:30N 53°32' E 009°53'3 5.3
2019-Sep-14 10:00N 53°33' E 009°49'2 4.6
2019-Sep-14 09:30N 53°34' E 009°45'2 4.3
2019-Sep-14 09:00N 53°33' E 009°49'3 5.3
2019-Sep-14 08:30N 53°33' E 009°53'2 4.7
2019-Sep-14 08:00N 53°33' E 009°57'0 0.0
2019-Sep-14 07:30N 53°33' E 009°57'1 1.9
2019-Sep-14 07:00N 53°33' E 009°56'0 0.0
2019-Sep-14 06:29N 53°33' E 009°56'0 0.0
2019-Sep-14 05:59N 53°33' E 009°56'0 0.0
2019-Sep-14 05:29N 53°33' E 009°56'0 0.0
2019-Sep-14 04:59N 53°33' E 009°56'0 0.0
2019-Sep-14 04:30N 53°33' E 009°56'0 0.0
2019-Sep-14 03:59N 53°33' E 009°56'0 0.0
2019-Sep-14 03:29N 53°33' E 009°56'0 0.0
2019-Sep-14 02:59N 53°33' E 009°56'0 0.0
2019-Sep-14 02:29N 53°33' E 009°56'0 0.0
2019-Sep-14 01:59N 53°33' E 009°56'0 0.0
2019-Sep-14 01:29N 53°33' E 009°56'0 0.0
2019-Sep-14 00:59N 53°33' E 009°56'0 0.0
2019-Sep-14 00:29N 53°33' E 009°56'0 0.0
2019-Sep-14 00:00N 53°33' E 009°56'1 2.0
2019-Sep-13 23:31N 53°33' E 009°57'0 0.2
2019-Sep-13 23:00N 53°33' E 009°57'0 0.0
2019-Sep-13 22:30N 53°33' E 009°57'0 0.0
2019-Sep-13 22:00N 53°33' E 009°57'0 0.2
2019-Sep-13 21:30N 53°33' E 009°57'1 1.7
2019-Sep-13 21:00N 53°33' E 009°58'0 0.2
2019-Sep-13 20:30N 53°33' E 009°58'1 1.7
2019-Sep-13 20:00N 53°33' E 009°57'2 3.5
2019-Sep-13 19:30N 53°32' E 009°54'2 4.2
2019-Sep-13 19:00N 53°33' E 009°50'2 4.0
2019-Sep-13 18:30N 53°33' E 009°47'1 1.1
2019-Sep-13 18:00N 53°34' E 009°46'4 7.2
2019-Sep-13 17:30N 53°33' E 009°52'3 6.0
2019-Sep-13 17:00N 53°33' E 009°57'0 0.0
2019-Sep-13 16:30N 53°33' E 009°57'0 0.4
2019-Sep-13 16:00N 53°33' E 009°57'1 1.4
2019-Sep-13 15:28N 53°33' E 009°56'0 0.0
2019-Sep-13 14:58N 53°33' E 009°56'0 0.0
2019-Sep-13 14:28N 53°33' E 009°56'0 0.0
2019-Sep-13 13:58N 53°33' E 009°56'0 0.0
2019-Sep-13 13:28N 53°33' E 009°56'0 0.0
2019-Sep-13 12:58N 53°33' E 009°56'0 0.0
2019-Sep-13 12:28N 53°33' E 009°56'0 0.0
2019-Sep-13 11:58N 53°33' E 009°56'0 0.1
2019-Sep-13 11:28N 53°33' E 009°55'0 0.1
2019-Sep-13 10:58N 53°33' E 009°56'0 0.0
2019-Sep-13 10:28N 53°33' E 009°56'0 0.0
2019-Sep-13 09:58N 53°33' E 009°56'0 0.0
2019-Sep-13 09:28N 53°33' E 009°56'0 0.0
2019-Sep-13 08:58N 53°33' E 009°56'0 0.0
2019-Sep-13 08:28N 53°33' E 009°56'0 0.0
2019-Sep-13 07:55N 53°33' E 009°56'0 0.0
2019-Sep-13 07:28N 53°33' E 009°56'0 0.0
2019-Sep-13 06:58N 53°33' E 009°56'0 0.0
2019-Sep-13 06:28N 53°33' E 009°56'0 0.0
2019-Sep-13 05:58N 53°33' E 009°56'0 0.0
2019-Sep-13 05:28N 53°33' E 009°56'0 0.0
2019-Sep-13 04:58N 53°33' E 009°56'0 0.0
2019-Sep-13 04:29N 53°33' E 009°56'0 0.0
2019-Sep-13 03:58N 53°33' E 009°56'0 0.0
2019-Sep-13 03:28N 53°33' E 009°56'0 0.0
2019-Sep-13 02:58N 53°33' E 009°56'0 0.0
2019-Sep-13 01:58N 53°33' E 009°56'0 0.0
2019-Sep-13 01:28N 53°33' E 009°56'0 0.0
2019-Sep-13 00:58N 53°33' E 009°56'0 0.0
2019-Sep-13 00:28N 53°33' E 009°56'0 0.0
2019-Sep-12 23:58N 53°33' E 009°56'0 0.0
2019-Sep-12 23:28N 53°33' E 009°56'0 0.0
2019-Sep-12 22:58N 53°33' E 009°56'0 0.0
2019-Sep-12 22:28N 53°33' E 009°56'0 0.0
2019-Sep-12 21:58N 53°33' E 009°56'0 0.0
2019-Sep-12 21:28N 53°33' E 009°56'0 0.0
2019-Sep-12 20:58N 53°33' E 009°56'0 0.0
2019-Sep-12 20:28N 53°33' E 009°56'0 0.0
2019-Sep-12 19:58N 53°33' E 009°56'0 0.0
2019-Sep-12 19:28N 53°33' E 009°56'0 0.0
2019-Sep-12 18:58N 53°33' E 009°56'0 0.0
2019-Sep-12 18:28N 53°33' E 009°56'0 0.0
2019-Sep-12 17:58N 53°33' E 009°56'0 0.0
2019-Sep-12 17:28N 53°33' E 009°56'0 0.0
2019-Sep-12 16:58N 53°33' E 009°56'0 0.0
2019-Sep-12 16:28N 53°33' E 009°56'0 0.0
2019-Sep-12 15:58N 53°33' E 009°56'0 0.0
2019-Sep-12 15:25N 53°33' E 009°56'0 0.0
2019-Sep-12 14:58N 53°33' E 009°56'0 0.0
2019-Sep-12 14:28N 53°33' E 009°56'0 0.0
2019-Sep-12 13:58N 53°33' E 009°56'0 0.0
2019-Sep-12 13:28N 53°33' E 009°56'0 0.0
2019-Sep-12 12:58N 53°33' E 009°56'0 0.0
2019-Sep-12 12:28N 53°33' E 009°56'0 0.0
2019-Sep-12 11:55N 53°33' E 009°56'0 0.0
2019-Sep-12 11:28N 53°33' E 009°56'0 0.0
2019-Sep-12 10:58N 53°33' E 009°56'0 0.0
2019-Sep-12 10:28N 53°33' E 009°56'0 0.0
2019-Sep-12 09:58N 53°33' E 009°56'0 0.0
2019-Sep-12 09:28N 53°33' E 009°56'0 0.0
2019-Sep-12 08:58N 53°33' E 009°56'0 0.0
2019-Sep-12 08:28N 53°33' E 009°56'0 0.0
2019-Sep-12 07:58N 53°33' E 009°56'0 0.0
2019-Sep-12 07:28N 53°33' E 009°56'0 0.0
2019-Sep-12 06:58N 53°33' E 009°56'0 0.0
2019-Sep-12 06:28N 53°33' E 009°56'0 0.0
2019-Sep-12 05:58N 53°33' E 009°56'0 0.0
2019-Sep-12 05:28N 53°33' E 009°56'0 0.0
2019-Sep-12 04:58N 53°33' E 009°56'0 0.0
2019-Sep-12 04:28N 53°33' E 009°56'0 0.0
2019-Sep-12 03:58N 53°33' E 009°56'0 0.0
2019-Sep-12 03:28N 53°33' E 009°56'0 0.0
2019-Sep-12 02:58N 53°33' E 009°56'0 0.0
2019-Sep-12 02:28N 53°33' E 009°56'0 0.0
2019-Sep-12 01:58N 53°33' E 009°56'0 0.0
2019-Sep-12 01:28N 53°33' E 009°56'0 0.0
2019-Sep-12 00:58N 53°33' E 009°56'0 0.0
2019-Sep-12 00:28N 53°33' E 009°56'0 0.0
2019-Sep-11 23:58N 53°33' E 009°56'0 0.0
2019-Sep-11 23:28N 53°33' E 009°56'0 0.0
2019-Sep-11 22:58N 53°33' E 009°56'0 0.0
2019-Sep-11 22:25N 53°33' E 009°56'0 0.0
2019-Sep-11 21:58N 53°33' E 009°56'0 0.0
2019-Sep-11 21:28N 53°33' E 009°56'0 0.0
2019-Sep-11 20:55N 53°33' E 009°56'0 0.0
2019-Sep-11 20:28N 53°33' E 009°56'0 0.0
2019-Sep-11 19:58N 53°33' E 009°56'0 0.0
2019-Sep-11 19:25N 53°33' E 009°56'0 0.0
2019-Sep-11 18:58N 53°33' E 009°56'0 0.0
2019-Sep-11 18:28N 53°33' E 009°56'0 0.0
2019-Sep-11 17:58N 53°33' E 009°56'0 0.0
2019-Sep-11 17:28N 53°33' E 009°56'0 0.0
2019-Sep-11 16:58N 53°33' E 009°56'0 0.0
2019-Sep-11 16:28N 53°33' E 009°56'0 0.0
2019-Sep-11 15:58N 53°33' E 009°56'0 0.0
2019-Sep-11 15:28N 53°33' E 009°56'0 0.0
2019-Sep-11 15:01N 53°33' E 009°56'2 3.1
2019-Sep-11 14:31N 53°33' E 009°53'3 6.3
2019-Sep-11 14:00N 53°33' E 009°48'3 7.0
2019-Sep-11 13:30N 53°34' E 009°42'3 6.8
2019-Sep-11 13:00N 53°35' E 009°37'4 7.1
2019-Sep-11 12:30N 53°37' E 009°32'3 6.5
2019-Sep-11 12:01N 53°40' E 009°30'3 5.9
2019-Sep-11 11:30N 53°43' E 009°28'3 6.4
2019-Sep-11 11:00N 53°45' E 009°24'3 6.0
2019-Sep-11 10:30N 53°48' E 009°22'4 7.4
2019-Sep-11 10:00N 53°51' E 009°19'5 8.9
2019-Sep-11 09:27N 53°53' E 009°11'14 9.2
2019-Sep-11 07:56N 53°50' E 008°47'4 7.7
2019-Sep-11 07:26N 53°53' E 008°42'5 6.4
2019-Sep-11 06:36N 53°57' E 008°37'  

Dump ship's entire track history